createdAt,value
2023-03-31T00:00:51.433Z,6.73
2023-03-31T00:03:22.629Z,6.73
2023-03-31T00:05:53.748Z,9.17
2023-03-31T00:08:21.442Z,7.00
2023-03-31T00:10:49.231Z,7.97
2023-03-31T00:13:16.176Z,10.83
2023-03-31T00:15:42.896Z,9.00
2023-03-31T00:18:09.590Z,7.67
2023-03-31T00:20:38.349Z,8.03
2023-03-31T00:23:11.322Z,9.43
2023-03-31T00:25:41.831Z,7.90
2023-03-31T00:28:08.593Z,7.93
2023-03-31T00:30:35.384Z,7.70
2023-03-31T00:33:02.427Z,8.13
2023-03-31T00:35:29.117Z,7.60
2023-03-31T00:37:58.128Z,8.33
2023-03-31T00:40:25.082Z,7.40
2023-03-31T00:42:52.213Z,7.70
2023-03-31T00:45:27.595Z,8.00
2023-03-31T00:48:13.672Z,7.47
2023-03-31T00:50:49.973Z,7.97
2023-03-31T00:53:19.353Z,8.03
2023-03-31T00:55:53.377Z,7.60
2023-03-31T00:58:21.941Z,7.70
2023-03-31T01:00:51.516Z,7.40
2023-03-31T01:03:19.462Z,7.50
2023-03-31T01:05:50.347Z,8.43
2023-03-31T01:08:20.202Z,8.43
2023-03-31T01:10:51.366Z,7.85
2023-03-31T01:13:20.182Z,8.17
2023-03-31T01:15:47.460Z,8.20
2023-03-31T01:18:16.517Z,9.63
2023-03-31T01:21:23.524Z,8.87
2023-03-31T01:24:18.353Z,8.47
2023-03-31T01:27:01.881Z,9.10
2023-03-31T01:30:00.796Z,8.77
2023-03-31T01:32:59.578Z,12.77
2023-03-31T01:36:08.896Z,11.07
2023-03-31T01:39:10.779Z,11.80
2023-03-31T01:42:08.531Z,11.63
2023-03-31T01:44:43.974Z,9.67
2023-03-31T01:47:13.871Z,10.13
2023-03-31T01:50:00.598Z,10.23
2023-03-31T01:52:49.968Z,11.30
2023-03-31T01:55:24.686Z,11.57
2023-03-31T01:57:57.972Z,10.70
2023-03-31T02:00:33.728Z,11.97
2023-03-31T02:03:11.948Z,9.93
2023-03-31T02:05:45.616Z,11.33
2023-03-31T02:08:17.176Z,10.57
2023-03-31T02:10:46.603Z,10.40
2023-03-31T02:13:19.047Z,9.20
2023-03-31T02:15:51.672Z,11.63
2023-03-31T02:18:20.883Z,9.00
2023-03-31T02:20:51.531Z,9.50
2023-03-31T02:23:23.358Z,12.03
2023-03-31T02:25:54.757Z,9.67
2023-03-31T02:28:24.634Z,10.77
2023-03-31T02:31:06.878Z,9.48
2023-03-31T02:33:33.808Z,10.70
2023-03-31T02:36:01.144Z,9.83
2023-03-31T02:38:28.573Z,10.50
2023-03-31T02:40:55.341Z,9.60
2023-03-31T02:43:23.054Z,9.50
2023-03-31T02:45:51.566Z,8.30
2023-03-31T02:48:28.991Z,8.43
2023-03-31T02:51:09.157Z,9.63
2023-03-31T02:53:51.014Z,8.53
2023-03-31T02:56:50.484Z,7.83
2023-03-31T02:59:32.076Z,9.27
2023-03-31T03:02:11.069Z,8.07
2023-03-31T03:05:18.956Z,8.37
2023-03-31T03:08:00.745Z,9.30
2023-03-31T03:10:46.118Z,8.83
2023-03-31T03:13:20.069Z,10.77
2023-03-31T03:15:52.865Z,8.60
2023-03-31T03:18:19.778Z,8.83
2023-03-31T03:20:49.457Z,8.80
2023-03-31T03:23:16.949Z,11.20
2023-03-31T03:25:44.617Z,9.50
2023-03-31T03:28:11.481Z,8.67
2023-03-31T03:30:38.320Z,8.13
2023-03-31T03:33:07.054Z,8.23
2023-03-31T03:35:35.028Z,8.70
2023-03-31T03:38:01.878Z,8.27
2023-03-31T03:40:28.597Z,8.23
2023-03-31T03:42:55.501Z,7.67
2023-03-31T03:45:22.145Z,8.43
2023-03-31T03:47:48.828Z,7.53
2023-03-31T03:50:16.701Z,12.27
2023-03-31T03:52:44.131Z,7.50
2023-03-31T03:55:12.308Z,7.37
2023-03-31T03:57:39.003Z,7.30
2023-03-31T04:00:12.840Z,7.00
2023-03-31T04:02:40.107Z,7.80
2023-03-31T04:05:07.353Z,8.37
2023-03-31T04:07:34.242Z,8.70
2023-03-31T04:10:01.052Z,9.07
2023-03-31T04:12:27.695Z,7.27
2023-03-31T04:14:54.453Z,7.37
2023-03-31T04:17:33.335Z,9.27
2023-03-31T04:20:06.247Z,8.30
2023-03-31T04:22:40.785Z,7.73
2023-03-31T04:25:16.880Z,8.30
2023-03-31T04:27:55.728Z,8.50
2023-03-31T04:30:24.152Z,8.73
2023-03-31T04:32:59.610Z,8.43
2023-03-31T04:35:43.044Z,8.33
2023-03-31T04:38:10.108Z,9.10
2023-03-31T04:40:36.875Z,8.30
2023-03-31T04:43:03.602Z,8.43
2023-03-31T04:45:30.291Z,7.47
2023-03-31T04:47:57.111Z,7.37
2023-03-31T04:50:23.781Z,6.07
2023-03-31T04:52:50.654Z,6.30
2023-03-31T04:55:17.372Z,6.20
2023-03-31T04:57:44.144Z,5.97
2023-03-31T05:00:11.729Z,7.60
2023-03-31T05:02:38.482Z,9.93
2023-03-31T05:05:06.177Z,8.33
2023-03-31T05:07:33.056Z,8.97
2023-03-31T05:09:59.716Z,6.70
2023-03-31T05:12:26.463Z,8.37
2023-03-31T05:14:53.299Z,6.33
2023-03-31T05:17:20.006Z,7.97
2023-03-31T05:19:46.700Z,6.00
2023-03-31T05:22:13.527Z,9.20
2023-03-31T05:24:40.176Z,8.87
2023-03-31T05:27:06.869Z,7.80
2023-03-31T05:29:33.568Z,7.10
2023-03-31T05:32:00.272Z,7.13
2023-03-31T05:34:27.074Z,8.30
2023-03-31T05:36:54.128Z,7.20
2023-03-31T05:39:21.448Z,5.63
2023-03-31T05:41:48.336Z,5.00
2023-03-31T05:44:15.576Z,4.97
2023-03-31T05:46:42.657Z,5.87
2023-03-31T05:49:10.176Z,5.67
2023-03-31T05:51:36.875Z,3.83
2023-03-31T05:54:03.761Z,3.47
2023-03-31T05:56:30.549Z,3.83
2023-03-31T05:59:00.606Z,3.43
2023-03-31T06:03:55.002Z,3.80
2023-03-31T06:06:22.638Z,4.10
2023-03-31T06:08:49.657Z,3.50
2023-03-31T06:11:19.716Z,3.53
2023-03-31T06:13:47.212Z,3.47
2023-03-31T06:16:15.797Z,3.90
2023-03-31T06:18:43.036Z,3.57
2023-03-31T06:21:17.562Z,2.93
2023-03-31T06:23:45.618Z,3.10
2023-03-31T06:26:15.018Z,3.47
2023-03-31T06:28:43.112Z,3.63
2023-03-31T06:31:12.871Z,2.90
2023-03-31T06:33:41.362Z,2.95
2023-03-31T06:36:09.911Z,3.17
2023-03-31T06:38:40.715Z,3.37
2023-03-31T06:41:09.818Z,3.40
2023-03-31T06:43:37.468Z,2.90
2023-03-31T06:46:05.195Z,3.30
2023-03-31T06:48:32.169Z,3.00
2023-03-31T06:51:04.876Z,3.20
2023-03-31T06:53:32.138Z,3.97
2023-03-31T06:55:59.119Z,3.20
2023-03-31T06:58:27.677Z,3.43
2023-03-31T07:03:22.876Z,2.90
2023-03-31T07:05:51.093Z,3.30
2023-03-31T07:08:18.404Z,2.93
2023-03-31T07:10:48.835Z,3.03
2023-03-31T07:13:17.352Z,2.97
2023-03-31T07:15:47.569Z,3.10
2023-03-31T07:18:17.173Z,3.90
2023-03-31T07:20:50.849Z,3.08
2023-03-31T07:23:18.741Z,3.03
2023-03-31T07:25:46.695Z,3.23
2023-03-31T07:28:13.396Z,2.70
2023-03-31T07:30:41.273Z,2.97
2023-03-31T07:33:09.870Z,3.10
2023-03-31T07:35:41.352Z,3.33
2023-03-31T07:38:10.067Z,3.07
2023-03-31T07:40:38.870Z,2.93
2023-03-31T07:43:06.417Z,2.60
2023-03-31T07:45:34.666Z,3.30
2023-03-31T07:48:02.964Z,4.17
2023-03-31T07:50:33.589Z,2.57
2023-03-31T07:53:00.716Z,2.50
2023-03-31T07:55:27.561Z,2.70
2023-03-31T07:57:58.382Z,8.20
2023-03-31T08:00:25.491Z,6.90
2023-03-31T08:02:52.382Z,2.60
2023-03-31T08:05:21.087Z,2.93
2023-03-31T08:08:01.629Z,4.73
2023-03-31T08:10:28.485Z,5.63
2023-03-31T08:13:02.852Z,2.93
2023-03-31T08:15:29.878Z,2.30
2023-03-31T08:17:57.627Z,2.30
2023-03-31T08:20:28.286Z,2.77
2023-03-31T08:23:07.349Z,2.20
2023-03-31T08:25:34.077Z,2.67
2023-03-31T08:28:14.664Z,2.37
2023-03-31T08:30:43.973Z,1.60
2023-03-31T08:33:13.157Z,1.95
2023-03-31T08:35:40.210Z,2.63
2023-03-31T08:38:09.952Z,2.80
2023-03-31T08:40:41.616Z,1.92
2023-03-31T08:43:27.476Z,7.90
2023-03-31T08:45:56.596Z,1.77
2023-03-31T08:48:33.695Z,2.10
2023-03-31T08:51:41.374Z,2.03
2023-03-31T08:54:32.537Z,4.17
2023-03-31T08:57:12.812Z,3.90
2023-03-31T08:59:44.079Z,3.10
2023-03-31T09:02:30.329Z,3.40
2023-03-31T09:05:15.477Z,3.30
2023-03-31T09:07:59.438Z,2.00
2023-03-31T09:10:54.947Z,2.43
2023-03-31T09:13:57.324Z,4.63
2023-03-31T09:16:34.148Z,2.80
2023-03-31T09:19:02.167Z,2.87
2023-03-31T09:21:38.498Z,1.87
2023-03-31T09:24:11.213Z,2.23
2023-03-31T09:26:53.120Z,1.70
2023-03-31T09:29:24.600Z,2.33
2023-03-31T09:31:54.861Z,1.60
2023-03-31T09:38:02.005Z,2.10
2023-03-31T09:40:29.375Z,2.37
2023-03-31T09:43:29.230Z,1.90
2023-03-31T09:49:00.813Z,1.67
2023-03-31T09:51:37.607Z,1.87
2023-03-31T09:54:44.831Z,1.80
2023-03-31T09:57:37.438Z,2.03
2023-03-31T10:00:19.994Z,1.63
2023-03-31T10:03:01.783Z,3.97
2023-03-31T10:05:50.221Z,2.37
2023-03-31T10:08:17.197Z,1.93
2023-03-31T10:11:08.124Z,1.90
2023-03-31T10:14:01.667Z,1.80
2023-03-31T10:16:35.338Z,1.80
2023-03-31T10:19:24.537Z,2.10
2023-03-31T10:22:06.504Z,16.83
2023-03-31T10:24:41.309Z,1.97
2023-03-31T10:27:24.423Z,1.93
2023-03-31T10:30:03.210Z,1.83
2023-03-31T10:32:39.507Z,7.87
2023-03-31T10:35:13.014Z,2.40
2023-03-31T10:37:41.074Z,2.37
2023-03-31T10:40:28.936Z,4.10
2023-03-31T10:43:09.817Z,3.70
2023-03-31T10:45:58.878Z,1.67
2023-03-31T10:48:33.379Z,1.58
2023-03-31T10:51:05.815Z,3.30
2023-03-31T10:53:49.530Z,4.27
2023-03-31T10:56:46.521Z,2.37
2023-03-31T10:59:43.852Z,2.93
2023-03-31T11:02:22.977Z,17.13
2023-03-31T11:04:52.304Z,1.83
2023-03-31T11:07:39.063Z,3.03
2023-03-31T11:10:15.492Z,4.37
2023-03-31T11:13:01.185Z,3.73
2023-03-31T11:15:38.590Z,3.57
2023-03-31T11:18:36.625Z,2.30
2023-03-31T11:21:06.641Z,4.60
2023-03-31T11:23:44.022Z,4.03
2023-03-31T11:26:17.767Z,3.63
2023-03-31T11:29:09.308Z,2.30
2023-03-31T11:31:58.819Z,3.67
2023-03-31T11:34:26.064Z,2.03
2023-03-31T11:37:21.642Z,3.53
2023-03-31T11:39:48.475Z,3.03
2023-03-31T11:42:22.818Z,1.97
2023-03-31T11:44:58.231Z,2.47
2023-03-31T11:47:31.414Z,3.20
2023-03-31T11:50:10.370Z,1.80
2023-03-31T11:52:44.950Z,4.83
2023-03-31T11:55:19.582Z,2.87
2023-03-31T11:57:56.767Z,3.20
2023-03-31T12:00:30.203Z,2.33
2023-03-31T12:03:04.859Z,3.83
2023-03-31T12:05:35.157Z,3.80
2023-03-31T12:08:08.119Z,2.77
2023-03-31T12:10:37.554Z,3.93
2023-03-31T12:13:31.435Z,2.80
2023-03-31T12:16:13.961Z,3.03
2023-03-31T12:18:50.031Z,3.50
2023-03-31T12:21:17.669Z,2.57
2023-03-31T12:23:46.148Z,2.60
2023-03-31T12:26:28.302Z,3.60
2023-03-31T12:29:01.401Z,5.73
2023-03-31T12:31:30.889Z,2.73
2023-03-31T12:34:02.104Z,5.55
2023-03-31T12:36:32.112Z,4.40
2023-03-31T12:42:26.096Z,2.85
2023-03-31T12:45:11.220Z,3.47
2023-03-31T12:48:08.837Z,2.73
2023-03-31T12:50:54.218Z,5.20
2023-03-31T12:53:40.716Z,5.40
2023-03-31T12:56:08.863Z,2.00
2023-03-31T12:58:40.310Z,2.60
2023-03-31T13:01:24.283Z,3.07
2023-03-31T13:04:07.248Z,2.23
2023-03-31T13:06:34.060Z,3.17
2023-03-31T13:09:33.893Z,3.07
2023-03-31T13:12:08.523Z,4.78
2023-03-31T13:14:40.381Z,3.17
2023-03-31T13:17:30.065Z,2.40
2023-03-31T13:20:25.175Z,3.88
2023-03-31T13:23:01.454Z,4.30
2023-03-31T13:25:31.208Z,3.37
2023-03-31T13:28:04.671Z,2.88
2023-03-31T13:30:53.502Z,2.87
2023-03-31T13:33:45.042Z,2.47
2023-03-31T13:36:24.893Z,2.13
2023-03-31T13:39:29.044Z,2.83
2023-03-31T13:42:06.279Z,2.00
2023-03-31T13:44:57.766Z,1.60
2023-03-31T13:47:51.004Z,3.97
2023-03-31T13:50:22.533Z,9.87
2023-03-31T13:52:58.099Z,6.70
2023-03-31T13:55:46.860Z,3.00
2023-03-31T13:58:29.993Z,2.20
2023-03-31T14:01:19.663Z,1.83
2023-03-31T14:03:52.629Z,1.63
2023-03-31T14:06:53.162Z,3.03
2023-03-31T14:09:33.264Z,1.90
2023-03-31T14:12:01.093Z,2.35
2023-03-31T14:14:29.963Z,2.73
2023-03-31T14:17:03.823Z,2.03
2023-03-31T14:19:52.221Z,2.03
2023-03-31T14:22:41.561Z,3.03
2023-03-31T14:25:46.484Z,1.80
2023-03-31T14:28:25.235Z,2.53
2023-03-31T14:30:54.801Z,1.60
2023-03-31T14:33:41.808Z,6.63
2023-03-31T14:36:30.878Z,2.30
2023-03-31T14:39:04.682Z,2.30
2023-03-31T14:41:31.576Z,2.60
2023-03-31T14:44:02.873Z,2.57
2023-03-31T14:46:35.240Z,1.77
2023-03-31T14:49:21.756Z,2.50
2023-03-31T14:51:49.013Z,2.03
2023-03-31T14:54:18.514Z,2.50
2023-03-31T14:56:50.902Z,2.25
2023-03-31T14:59:31.276Z,2.10
2023-03-31T15:02:00.520Z,3.07
2023-03-31T15:04:39.629Z,2.03
2023-03-31T15:07:09.865Z,1.80
2023-03-31T15:09:36.792Z,1.93
2023-03-31T15:12:07.758Z,2.93
2023-03-31T15:14:43.778Z,2.40
2023-03-31T15:17:26.260Z,2.60
2023-03-31T15:19:59.707Z,11.67
2023-03-31T15:22:30.028Z,2.83
2023-03-31T15:24:57.530Z,1.97
2023-03-31T15:27:38.316Z,3.13
2023-03-31T15:30:23.638Z,2.63
2023-03-31T15:32:50.754Z,2.17
2023-03-31T15:35:36.895Z,2.37
2023-03-31T15:38:06.577Z,2.87
2023-03-31T15:40:40.354Z,2.33
2023-03-31T15:43:25.329Z,3.77
2023-03-31T15:45:54.959Z,2.50
2023-03-31T15:48:35.169Z,2.67
2023-03-31T15:51:13.991Z,2.53
2023-03-31T15:53:54.666Z,3.27
2023-03-31T15:56:48.208Z,2.70
2023-03-31T15:59:34.212Z,2.40
2023-03-31T16:02:03.822Z,4.57
2023-03-31T16:04:33.403Z,3.90
2023-03-31T16:07:14.955Z,3.88
2023-03-31T16:09:49.974Z,3.47
2023-03-31T16:12:22.903Z,3.70
2023-03-31T16:15:02.478Z,5.00
2023-03-31T16:17:37.359Z,4.13
2023-03-31T16:20:24.658Z,6.57
2023-03-31T16:22:55.130Z,5.53
2023-03-31T16:25:24.122Z,3.60
2023-03-31T16:27:55.741Z,3.30
2023-03-31T16:30:38.237Z,3.73
2023-03-31T16:33:17.833Z,3.77
2023-03-31T16:35:53.796Z,4.10
2023-03-31T16:38:28.935Z,3.33
2023-03-31T16:41:00.592Z,4.70
2023-03-31T16:43:31.734Z,4.47
2023-03-31T16:46:00.760Z,2.77
2023-03-31T16:48:29.601Z,2.80
2023-03-31T16:50:58.672Z,2.60
2023-03-31T16:53:28.567Z,2.83
2023-03-31T16:55:58.691Z,2.70
2023-03-31T16:58:28.564Z,3.78
2023-03-31T17:00:56.662Z,3.00
2023-03-31T17:03:23.904Z,3.87
2023-03-31T17:05:53.305Z,3.10
2023-03-31T17:08:21.827Z,4.23
2023-03-31T17:11:11.119Z,3.30
2023-03-31T17:13:38.915Z,3.30
2023-03-31T17:16:18.617Z,5.50
2023-03-31T17:18:51.233Z,4.17
2023-03-31T17:21:21.287Z,3.27
2023-03-31T17:23:48.072Z,2.92
2023-03-31T17:26:18.617Z,4.00
2023-03-31T17:31:12.748Z,3.13
2023-03-31T17:33:40.844Z,3.37
2023-03-31T17:36:08.129Z,3.30
2023-03-31T17:38:34.926Z,2.93
2023-03-31T17:41:06.242Z,3.23
2023-03-31T17:43:33.571Z,3.27
2023-03-31T17:46:06.568Z,3.93
2023-03-31T17:48:38.083Z,3.27
2023-03-31T17:51:13.303Z,3.93
2023-03-31T17:53:40.092Z,3.80
2023-03-31T17:56:06.975Z,3.43
2023-03-31T17:58:33.820Z,4.57
2023-03-31T18:01:00.767Z,3.17
2023-03-31T18:03:30.708Z,2.33
2023-03-31T18:05:57.783Z,4.80
2023-03-31T18:08:24.575Z,3.27
2023-03-31T18:10:51.656Z,4.73
2023-03-31T18:13:18.406Z,5.33
2023-03-31T18:15:52.799Z,4.10
2023-03-31T18:18:21.011Z,4.40
2023-03-31T18:20:50.454Z,3.73
2023-03-31T18:23:17.157Z,5.43
2023-03-31T18:25:46.267Z,5.00
2023-03-31T18:28:14.355Z,6.60
2023-03-31T18:30:41.452Z,8.07
2023-03-31T18:33:08.212Z,6.00
2023-03-31T18:35:35.372Z,6.17
2023-03-31T18:38:02.468Z,6.20
2023-03-31T18:40:31.239Z,5.03
2023-03-31T18:42:57.916Z,5.23
2023-03-31T18:45:24.767Z,6.10
2023-03-31T18:47:51.483Z,3.83
2023-03-31T18:50:19.311Z,3.00
2023-03-31T18:52:47.656Z,3.50
2023-03-31T18:55:15.747Z,3.70
2023-03-31T18:57:42.379Z,3.60
2023-03-31T19:00:10.387Z,3.50
2023-03-31T19:02:37.230Z,3.50
2023-03-31T19:05:04.197Z,3.50
2023-03-31T19:07:30.971Z,4.03
2023-03-31T19:09:58.269Z,3.77
2023-03-31T19:12:24.980Z,4.10
2023-03-31T19:14:54.245Z,3.20
2023-03-31T19:17:21.080Z,2.77
2023-03-31T19:19:47.866Z,3.07
2023-03-31T19:22:14.610Z,3.10
2023-03-31T19:24:41.301Z,2.93
2023-03-31T19:27:09.457Z,3.00
2023-03-31T19:29:36.190Z,3.20
2023-03-31T19:32:03.006Z,3.60
2023-03-31T19:34:29.790Z,4.40
2023-03-31T19:36:56.764Z,3.03
2023-03-31T19:39:25.607Z,3.03
2023-03-31T19:41:54.365Z,2.90
2023-03-31T19:44:22.153Z,3.10
2023-03-31T19:46:50.109Z,2.80
2023-03-31T19:49:18.004Z,5.63
2023-03-31T19:51:44.712Z,3.47
2023-03-31T19:54:12.035Z,3.00
2023-03-31T19:56:39.414Z,3.30
2023-03-31T19:59:06.595Z,3.40
2023-03-31T20:01:33.693Z,3.43
2023-03-31T20:04:01.048Z,3.50
2023-03-31T20:06:30.114Z,3.17
2023-03-31T20:08:59.414Z,3.10
2023-03-31T20:11:27.726Z,3.45
2023-03-31T20:13:55.479Z,3.97
2023-03-31T20:16:25.288Z,12.93
2023-03-31T20:18:58.842Z,23.33
2023-03-31T20:21:28.847Z,16.63
2023-03-31T20:23:57.324Z,19.27
2023-03-31T20:26:32.685Z,19.73
2023-03-31T20:29:04.252Z,17.33
2023-03-31T20:31:34.165Z,18.97
2023-03-31T20:34:00.910Z,18.08
2023-03-31T20:36:29.857Z,14.17
2023-03-31T20:38:57.284Z,11.30
2023-03-31T20:41:27.201Z,11.40
2023-03-31T20:43:55.418Z,7.85
2023-03-31T20:46:22.550Z,7.13
2023-03-31T20:48:52.168Z,6.93
2023-03-31T20:51:22.128Z,5.78
2023-03-31T20:53:53.054Z,5.90
2023-03-31T20:56:33.741Z,5.70
2023-03-31T20:59:00.670Z,6.67
2023-03-31T21:01:30.177Z,6.17
2023-03-31T21:04:01.173Z,6.15
2023-03-31T21:06:30.503Z,6.93
2023-03-31T21:08:57.683Z,7.43
2023-03-31T21:11:25.488Z,10.05
2023-03-31T21:13:53.374Z,9.10
2023-03-31T21:16:21.312Z,8.97
2023-03-31T21:18:48.588Z,6.37
2023-03-31T21:21:18.980Z,6.60
2023-03-31T21:23:46.800Z,6.10
2023-03-31T21:26:15.816Z,5.63
2023-03-31T21:28:43.874Z,5.97
2023-03-31T21:31:11.992Z,6.57
2023-03-31T21:33:40.757Z,5.77
2023-03-31T21:36:10.200Z,5.13
2023-03-31T21:38:37.654Z,4.65
2023-03-31T21:41:09.302Z,4.67
2023-03-31T21:43:36.807Z,4.47
2023-03-31T21:46:04.229Z,4.40
2023-03-31T21:48:33.419Z,4.47
2023-03-31T21:51:03.834Z,4.70
2023-03-31T21:53:31.238Z,4.03
2023-03-31T21:55:58.165Z,4.00
2023-03-31T21:58:28.711Z,3.90
2023-03-31T22:00:58.092Z,3.80
2023-03-31T22:03:28.898Z,4.63
2023-03-31T22:05:57.024Z,4.50
2023-03-31T22:08:24.763Z,3.33
2023-03-31T22:10:52.341Z,3.63
2023-03-31T22:13:20.250Z,3.33
2023-03-31T22:15:47.055Z,3.20
2023-03-31T22:18:13.989Z,4.63
2023-03-31T22:20:41.084Z,3.40
2023-03-31T22:23:08.087Z,3.60
2023-03-31T22:25:35.529Z,3.43
2023-03-31T22:28:04.541Z,3.90
2023-03-31T22:30:33.628Z,3.60
2023-03-31T22:33:00.639Z,3.47
2023-03-31T22:35:27.750Z,3.63
2023-03-31T22:37:54.605Z,3.60
2023-03-31T22:40:21.617Z,4.00
2023-03-31T22:42:51.057Z,3.40
2023-03-31T22:45:17.866Z,3.10
2023-03-31T22:47:44.722Z,3.03
2023-03-31T22:50:12.083Z,3.97
2023-03-31T22:52:38.772Z,3.37
2023-03-31T22:55:06.483Z,2.93
2023-03-31T22:57:33.767Z,3.00
2023-03-31T23:00:00.919Z,3.07
2023-03-31T23:02:27.862Z,2.77
2023-03-31T23:04:54.571Z,4.37
2023-03-31T23:07:22.160Z,2.97
2023-03-31T23:09:49.276Z,2.93
2023-03-31T23:12:16.187Z,3.07
2023-03-31T23:14:43.000Z,3.10
2023-03-31T23:17:09.709Z,5.33
2023-03-31T23:19:37.924Z,4.83
2023-03-31T23:22:04.642Z,2.87
2023-03-31T23:24:31.353Z,3.87
2023-03-31T23:26:58.159Z,3.23
2023-03-31T23:29:24.903Z,3.33
2023-03-31T23:31:51.880Z,3.87
2023-03-31T23:34:18.670Z,2.77
2023-03-31T23:36:45.562Z,2.80
2023-03-31T23:39:12.250Z,2.90
2023-03-31T23:41:39.087Z,3.03
2023-03-31T23:44:06.416Z,3.77
2023-03-31T23:46:33.872Z,4.23
2023-03-31T23:49:02.900Z,3.40
2023-03-31T23:51:31.055Z,3.77
2023-03-31T23:53:57.848Z,2.87
2023-03-31T23:56:26.237Z,2.60
2023-03-31T23:58:53.154Z,3.30
